createdAt,value
2022-08-28T00:02:24.832Z,100487.53
2022-08-28T00:04:51.741Z,100490.81
2022-08-28T00:07:19.328Z,100494.41
2022-08-28T00:09:45.840Z,100504.75
2022-08-28T00:12:12.463Z,100509.69
2022-08-28T00:14:39.490Z,100508.34
2022-08-28T00:17:06.222Z,100507.94
2022-08-28T00:19:36.621Z,100511.22
2022-08-28T00:22:05.186Z,100513.94
2022-08-28T00:24:31.730Z,100516.75
2022-08-28T00:27:16.622Z,100521.97
2022-08-28T00:29:45.257Z,100520.44
2022-08-28T00:32:11.873Z,100515.66
2022-08-28T00:34:38.914Z,100518.00
2022-08-28T00:37:05.909Z,100515.66
2022-08-28T00:39:32.468Z,100517.72
2022-08-28T00:41:58.952Z,100523.16
2022-08-28T00:44:27.980Z,100521.50
2022-08-28T00:46:57.114Z,100524.31
2022-08-28T00:49:27.765Z,100523.94
2022-08-28T00:52:10.800Z,100524.34
2022-08-28T00:54:55.374Z,100537.78
2022-08-28T00:57:32.735Z,100531.75
2022-08-28T00:59:59.211Z,100532.56
2022-08-28T01:02:27.406Z,100535.59
2022-08-28T01:04:54.932Z,100543.31
2022-08-28T01:07:23.261Z,100535.53
2022-08-28T01:09:53.936Z,100544.34
2022-08-28T01:12:28.438Z,100537.78
2022-08-28T01:15:00.045Z,100545.53
2022-08-28T01:17:31.247Z,100536.56
2022-08-28T01:20:03.102Z,100534.72
2022-08-28T01:22:38.452Z,100533.97
2022-08-28T01:25:13.167Z,100528.84
2022-08-28T01:27:41.984Z,100541.38
2022-08-28T01:30:15.917Z,100538.72
2022-08-28T01:32:45.641Z,100537.25
2022-08-28T01:35:17.181Z,100533.69
2022-08-28T01:37:43.883Z,100537.69
2022-08-28T01:40:14.969Z,100534.75
2022-08-28T01:42:42.762Z,100535.72
2022-08-28T01:45:13.409Z,100534.66
2022-08-28T01:47:41.903Z,100533.97
2022-08-28T01:50:11.164Z,100526.78
2022-08-28T01:52:39.690Z,100522.00
2022-08-28T01:55:07.629Z,100530.06
2022-08-28T01:57:35.323Z,100530.25
2022-08-28T02:00:02.161Z,100528.44
2022-08-28T02:02:29.197Z,100529.34
2022-08-28T02:04:55.669Z,100530.06
2022-08-28T02:07:22.128Z,100532.69
2022-08-28T02:09:48.592Z,100532.22
2022-08-28T02:12:15.041Z,100528.84
2022-08-28T02:14:41.507Z,100517.78
2022-08-28T02:17:07.955Z,100520.84
2022-08-28T02:19:34.532Z,100525.47
2022-08-28T02:22:00.989Z,100522.78
2022-08-28T02:24:27.487Z,100519.22
2022-08-28T02:26:53.982Z,100518.97
2022-08-28T02:29:20.485Z,100518.81
2022-08-28T02:31:46.988Z,100512.81
2022-08-28T02:34:13.484Z,100525.97
2022-08-28T02:36:41.693Z,100521.50
2022-08-28T02:39:08.628Z,100522.25
2022-08-28T02:41:35.120Z,100518.97
2022-08-28T02:44:02.279Z,100513.97
2022-08-28T02:46:28.790Z,100498.97
2022-08-28T02:48:56.222Z,100504.19
2022-08-28T02:51:22.728Z,100503.50
2022-08-28T02:53:50.397Z,100507.22
2022-08-28T02:56:16.970Z,100502.25
2022-08-28T02:58:43.417Z,100496.91
2022-08-28T03:01:11.990Z,100494.69
2022-08-28T03:03:40.976Z,100501.47
2022-08-28T03:06:09.323Z,100496.91
2022-08-28T03:08:35.872Z,100498.91
2022-08-28T03:11:02.421Z,100494.69
2022-08-28T03:13:30.092Z,100499.81
2022-08-28T03:15:57.522Z,100500.50
2022-08-28T03:18:26.851Z,100500.22
2022-08-28T03:20:55.522Z,100496.31
2022-08-28T03:23:28.153Z,100495.78
2022-08-28T03:26:10.830Z,100498.41
2022-08-28T03:28:44.160Z,100500.69
2022-08-28T03:31:14.442Z,100491.94
2022-08-28T03:33:42.839Z,100501.56
2022-08-28T03:36:15.513Z,100504.34
2022-08-28T03:38:42.222Z,100504.34
2022-08-28T03:41:13.500Z,100506.59
2022-08-28T03:43:40.135Z,100511.03
2022-08-28T03:46:07.885Z,100509.00
2022-08-28T03:48:37.549Z,100515.56
2022-08-28T03:51:13.530Z,100522.63
2022-08-28T03:53:42.473Z,100526.63
2022-08-28T03:56:11.561Z,100523.28
2022-08-28T03:58:39.469Z,100518.72
2022-08-28T04:01:06.348Z,100520.28
2022-08-28T04:03:33.377Z,100525.31
2022-08-28T04:05:59.904Z,100514.25
2022-08-28T04:08:27.296Z,100518.59
2022-08-28T04:10:54.889Z,100506.03
2022-08-28T04:13:22.630Z,100513.88
2022-08-28T04:16:10.391Z,100508.72
2022-08-28T04:18:39.521Z,100497.97
2022-08-28T04:21:15.189Z,100498.41
2022-08-28T04:23:43.278Z,100507.59
2022-08-28T04:26:16.085Z,100493.44
2022-08-28T04:28:43.668Z,100487.88
2022-08-28T04:31:10.566Z,100494.28
2022-08-28T04:33:38.213Z,100495.16
2022-08-28T04:36:11.869Z,100491.91
2022-08-28T04:38:43.658Z,100498.88
2022-08-28T04:41:12.944Z,100502.13
2022-08-28T04:43:39.680Z,100500.72
2022-08-28T04:46:09.847Z,100508.41
2022-08-28T04:48:36.821Z,100505.66
2022-08-28T04:51:05.941Z,100505.78
2022-08-28T04:53:32.990Z,100503.13
2022-08-28T04:56:00.643Z,100513.09
2022-08-28T04:58:27.947Z,100520.94
2022-08-28T05:00:55.190Z,100524.50
2022-08-28T05:03:22.163Z,100528.25
2022-08-28T05:05:52.005Z,100519.69
2022-08-28T05:08:21.894Z,100526.31
2022-08-28T05:10:49.149Z,100528.94
2022-08-28T05:13:16.465Z,100535.84
2022-08-28T05:15:46.316Z,100533.22
2022-08-28T05:18:14.325Z,100542.09
2022-08-28T05:20:44.881Z,100539.97
2022-08-28T05:23:12.315Z,100551.75
2022-08-28T05:25:41.952Z,100544.47
2022-08-28T05:28:12.038Z,100550.06
2022-08-28T05:30:40.613Z,100555.34
2022-08-28T05:33:08.136Z,100551.06
2022-08-28T05:35:36.707Z,100560.06
2022-08-28T05:38:03.193Z,100555.78
2022-08-28T05:40:29.741Z,100554.31
2022-08-28T05:42:57.366Z,100553.69
2022-08-28T05:45:23.875Z,100556.88
2022-08-28T05:47:52.061Z,100552.25
2022-08-28T05:50:19.104Z,100553.63
2022-08-28T05:52:45.649Z,100558.16
2022-08-28T05:55:13.228Z,100553.56
2022-08-28T05:57:40.688Z,100550.94
2022-08-28T06:00:12.398Z,100553.50
2022-08-28T06:02:42.121Z,100559.41
2022-08-28T06:05:13.224Z,100557.63
2022-08-28T06:07:40.889Z,100565.47
2022-08-28T06:10:07.841Z,100566.25
2022-08-28T06:12:37.345Z,100576.75
2022-08-28T06:15:04.097Z,100572.41
2022-08-28T06:17:31.028Z,100574.97
2022-08-28T06:19:57.544Z,100576.16
2022-08-28T06:22:24.065Z,100577.25
2022-08-28T06:24:50.496Z,100570.56
2022-08-28T06:27:16.988Z,100573.47
2022-08-28T06:29:44.633Z,100566.00
2022-08-28T06:32:11.211Z,100571.47
2022-08-28T06:34:37.720Z,100581.38
2022-08-28T06:37:04.242Z,100568.44
2022-08-28T06:39:30.712Z,100564.97
2022-08-28T06:41:57.223Z,100571.28
2022-08-28T06:44:23.845Z,100573.22
2022-08-28T06:46:53.676Z,100579.25
2022-08-28T06:49:20.645Z,100582.91
2022-08-28T06:51:47.139Z,100578.75
2022-08-28T06:54:18.449Z,100584.69
2022-08-28T06:56:47.810Z,100585.66
2022-08-28T06:59:14.289Z,100590.28
2022-08-28T07:01:40.914Z,100594.00
2022-08-28T07:04:09.966Z,100603.28
2022-08-28T07:06:39.312Z,100597.66
2022-08-28T07:09:08.445Z,100600.34
2022-08-28T07:11:36.185Z,100600.66
2022-08-28T07:14:03.844Z,100611.66
2022-08-28T07:16:33.664Z,100610.09
2022-08-28T07:19:03.708Z,100619.22
2022-08-28T07:21:31.123Z,100608.22
2022-08-28T07:23:58.051Z,100607.47
2022-08-28T07:26:26.073Z,100618.72
2022-08-28T07:29:09.514Z,100621.69
2022-08-28T07:31:40.882Z,100610.56
2022-08-28T07:34:09.425Z,100611.66
2022-08-28T07:36:35.978Z,100615.56
2022-08-28T07:39:03.012Z,100615.06
2022-08-28T07:41:32.520Z,100619.66
2022-08-28T07:44:18.007Z,100617.16
2022-08-28T07:46:45.280Z,100617.41
2022-08-28T07:49:16.968Z,100624.94
2022-08-28T07:51:43.509Z,100628.25
2022-08-28T07:54:16.906Z,100628.53
2022-08-28T07:56:45.277Z,100636.78
2022-08-28T07:59:12.152Z,100639.50
2022-08-28T08:01:46.965Z,100639.50
2022-08-28T08:04:15.945Z,100642.16
2022-08-28T08:06:43.849Z,100641.44
2022-08-28T08:09:13.442Z,100642.38
2022-08-28T08:11:39.905Z,100653.22
2022-08-28T08:14:07.393Z,100639.13
2022-08-28T08:16:36.069Z,100646.34
2022-08-28T08:19:03.360Z,100638.31
2022-08-28T08:21:30.740Z,100631.38
2022-08-28T08:23:58.069Z,100640.63
2022-08-28T08:26:28.054Z,100638.00
2022-08-28T08:28:56.144Z,100643.50
2022-08-28T08:31:34.177Z,100632.28
2022-08-28T08:34:04.821Z,100642.66
2022-08-28T08:36:33.464Z,100640.97
2022-08-28T08:39:00.800Z,100644.59
2022-08-28T08:41:37.744Z,100639.97
2022-08-28T08:44:23.395Z,100642.97
2022-08-28T08:47:14.014Z,100646.88
2022-08-28T08:49:52.291Z,100649.81
2022-08-28T08:52:30.684Z,100641.38
2022-08-28T08:55:23.165Z,100645.31
2022-08-28T08:58:01.061Z,100656.50
2022-08-28T09:00:29.273Z,100652.44
2022-08-28T09:03:09.306Z,100657.84
2022-08-28T09:05:51.578Z,100649.94
2022-08-28T09:08:36.653Z,100651.75
2022-08-28T09:11:23.014Z,100661.91
2022-08-28T09:14:00.210Z,100664.34
2022-08-28T09:16:35.242Z,100655.09
2022-08-28T09:19:02.651Z,100658.00
2022-08-28T09:21:34.020Z,100654.69
2022-08-28T09:24:05.796Z,100651.94
2022-08-28T09:26:35.948Z,100653.88
2022-08-28T09:29:14.627Z,100660.28
2022-08-28T09:31:41.865Z,100653.59
2022-08-28T09:34:34.319Z,100647.88
2022-08-28T09:37:08.268Z,100651.47
2022-08-28T09:39:38.649Z,100651.41
2022-08-28T09:42:32.657Z,100649.97
2022-08-28T09:45:09.786Z,100649.19
2022-08-28T09:47:57.405Z,100652.09
2022-08-28T09:50:32.621Z,100648.69
2022-08-28T09:53:16.532Z,100644.94
2022-08-28T09:56:33.398Z,100643.09
2022-08-28T09:59:14.991Z,100646.47
2022-08-28T10:01:44.750Z,100637.84
2022-08-28T10:04:11.793Z,100640.09
2022-08-28T10:06:39.153Z,100641.13
2022-08-28T10:09:32.167Z,100639.28
2022-08-28T10:12:14.251Z,100639.72
2022-08-28T10:15:08.264Z,100640.66
2022-08-28T10:17:44.113Z,100635.22
2022-08-28T10:20:31.243Z,100630.63
2022-08-28T10:23:17.805Z,100635.34
2022-08-28T10:25:50.776Z,100623.13
2022-08-28T10:28:20.108Z,100625.53
2022-08-28T10:31:09.109Z,100616.09
2022-08-28T10:33:52.258Z,100620.09
2022-08-28T10:36:33.925Z,100611.09
2022-08-28T10:39:32.857Z,100615.41
2022-08-28T10:42:04.262Z,100606.84
2022-08-28T10:45:05.342Z,100604.16
2022-08-28T10:47:35.177Z,100604.34
2022-08-28T10:50:08.164Z,100609.16
2022-08-28T10:52:47.949Z,100606.63
2022-08-28T10:55:21.174Z,100606.41
2022-08-28T10:57:56.506Z,100601.31
2022-08-28T11:00:25.462Z,100601.59
2022-08-28T11:02:56.961Z,100595.25
2022-08-28T11:05:27.613Z,100594.28
2022-08-28T11:08:08.466Z,100597.41
2022-08-28T11:10:34.941Z,100592.75
2022-08-28T11:13:02.796Z,100590.72
2022-08-28T11:15:36.472Z,100589.25
2022-08-28T11:18:15.861Z,100590.53
2022-08-28T11:21:03.008Z,100585.44
2022-08-28T11:23:38.763Z,100587.19
2022-08-28T11:26:12.339Z,100588.63
2022-08-28T11:28:47.507Z,100583.25
2022-08-28T11:31:19.127Z,100587.44
2022-08-28T11:33:58.958Z,100585.25
2022-08-28T11:36:26.412Z,100585.56
2022-08-28T11:38:55.694Z,100589.34
2022-08-28T11:41:29.359Z,100583.19
2022-08-28T11:44:13.740Z,100586.00
2022-08-28T11:46:49.449Z,100581.19
2022-08-28T11:49:26.446Z,100583.78
2022-08-28T11:52:14.994Z,100579.47
2022-08-28T11:55:08.876Z,100578.78
2022-08-28T11:58:21.390Z,100580.69
2022-08-28T12:00:55.805Z,100572.56
2022-08-28T12:04:07.546Z,100568.13
2022-08-28T12:06:50.188Z,100567.63
2022-08-28T12:09:43.427Z,100563.06
2022-08-28T12:12:38.793Z,100557.72
2022-08-28T12:15:08.191Z,100560.56
2022-08-28T12:17:44.588Z,100552.75
2022-08-28T12:20:35.121Z,100546.56
2022-08-28T12:23:23.606Z,100542.91
2022-08-28T12:25:58.786Z,100533.13
2022-08-28T12:28:31.821Z,100536.31
2022-08-28T12:31:19.973Z,100528.28
2022-08-28T12:34:04.600Z,100523.88
2022-08-28T12:36:32.130Z,100517.75
2022-08-28T12:38:58.810Z,100515.03
2022-08-28T12:41:25.437Z,100518.69
2022-08-28T12:43:56.973Z,100512.66
2022-08-28T12:46:28.267Z,100519.91
2022-08-28T12:49:00.024Z,100519.06
2022-08-28T12:51:29.128Z,100517.28
2022-08-28T12:53:59.231Z,100506.53
2022-08-28T12:56:30.068Z,100504.72
2022-08-28T12:59:22.324Z,100498.56
2022-08-28T13:01:54.761Z,100501.31
2022-08-28T13:04:34.808Z,100492.38
2022-08-28T13:07:10.520Z,100484.25
2022-08-28T13:09:37.900Z,100486.88
2022-08-28T13:12:07.304Z,100490.38
2022-08-28T13:14:43.303Z,100491.13
2022-08-28T13:17:12.013Z,100496.28
2022-08-28T13:19:39.093Z,100491.03
2022-08-28T13:22:09.784Z,100498.16
2022-08-28T13:24:42.624Z,100482.19
2022-08-28T13:27:16.914Z,100484.75
2022-08-28T13:30:00.021Z,100479.41
2022-08-28T13:32:28.107Z,100483.84
2022-08-28T13:35:30.774Z,100478.50
2022-08-28T13:38:04.055Z,100475.88
2022-08-28T13:43:41.824Z,100481.88
2022-08-28T13:46:08.417Z,100473.91
2022-08-28T13:48:43.686Z,100470.38
2022-08-28T13:51:21.149Z,100468.50
2022-08-28T13:53:48.653Z,100459.59
2022-08-28T13:56:16.266Z,100464.00
2022-08-28T13:58:42.726Z,100462.28
2022-08-28T14:01:10.952Z,100459.59
2022-08-28T14:03:41.239Z,100459.56
2022-08-28T14:06:16.846Z,100464.81
2022-08-28T14:08:45.346Z,100459.50
2022-08-28T14:11:15.049Z,100462.09
2022-08-28T14:13:47.470Z,100467.34
2022-08-28T14:16:23.126Z,100455.91
2022-08-28T14:18:50.427Z,100457.66
2022-08-28T14:21:16.969Z,100455.06
2022-08-28T14:23:43.539Z,100455.84
2022-08-28T14:26:10.010Z,100459.38
2022-08-28T14:28:36.478Z,100458.50
2022-08-28T14:31:05.635Z,100458.53
2022-08-28T14:33:36.138Z,100458.56
2022-08-28T14:36:03.694Z,100462.03
2022-08-28T14:38:30.362Z,100467.38
2022-08-28T14:40:57.044Z,100464.75
2022-08-28T14:43:24.076Z,100461.22
2022-08-28T14:45:50.697Z,100466.50
2022-08-28T14:48:18.703Z,100462.13
2022-08-28T14:50:48.163Z,100463.00
2022-08-28T14:53:16.263Z,100454.22
2022-08-28T14:55:45.568Z,100457.88
2022-08-28T14:58:13.605Z,100449.22
2022-08-28T15:00:42.280Z,100446.81
2022-08-28T15:03:09.949Z,100444.28
2022-08-28T15:05:36.758Z,100447.03
2022-08-28T15:08:06.715Z,100439.16
2022-08-28T15:10:33.377Z,100444.47
2022-08-28T15:12:59.866Z,100446.28
2022-08-28T15:15:26.438Z,100452.44
2022-08-28T15:17:52.860Z,100447.13
2022-08-28T15:20:19.766Z,100451.53
2022-08-28T15:22:46.356Z,100453.34
2022-08-28T15:25:12.942Z,100462.06
2022-08-28T15:27:39.555Z,100460.28
2022-08-28T15:30:06.691Z,100463.69
2022-08-28T15:32:33.257Z,100461.94
2022-08-28T15:34:59.694Z,100476.13
2022-08-28T15:37:26.295Z,100481.47
2022-08-28T15:40:11.466Z,100470.94
2022-08-28T15:42:38.027Z,100478.91
2022-08-28T15:45:05.109Z,100475.44
2022-08-28T15:47:32.617Z,100478.88
2022-08-28T15:49:59.098Z,100479.69
2022-08-28T15:52:25.581Z,100477.09
2022-08-28T15:54:52.590Z,100476.28
2022-08-28T15:57:19.454Z,100473.56
2022-08-28T15:59:50.139Z,100474.41
2022-08-28T16:02:22.507Z,100453.16
2022-08-28T16:04:57.789Z,100457.63
2022-08-28T16:07:28.298Z,100463.84
2022-08-28T16:09:57.980Z,100462.06
2022-08-28T16:12:25.564Z,100451.34
2022-08-28T16:14:56.313Z,100456.63
2022-08-28T16:17:26.419Z,100460.13
2022-08-28T16:19:53.284Z,100451.25
2022-08-28T16:22:20.435Z,100451.25
2022-08-28T16:24:47.559Z,100453.00
2022-08-28T16:27:15.966Z,100451.25
2022-08-28T16:29:44.899Z,100449.47
2022-08-28T16:32:12.499Z,100450.38
2022-08-28T16:34:41.749Z,100454.72
2022-08-28T16:37:11.552Z,100452.94
2022-08-28T16:39:41.384Z,100454.69
2022-08-28T16:42:08.188Z,100451.97
2022-08-28T16:44:35.238Z,100456.25
2022-08-28T16:47:01.785Z,100456.25
2022-08-28T16:49:29.403Z,100453.59
2022-08-28T16:51:56.179Z,100457.91
2022-08-28T16:54:28.186Z,100442.00
2022-08-28T16:56:54.903Z,100450.78
2022-08-28T16:59:24.334Z,100448.97
2022-08-28T17:01:53.122Z,100449.84
2022-08-28T17:04:21.314Z,100443.59
2022-08-28T17:06:47.803Z,100443.59
2022-08-28T17:09:14.331Z,100438.22
2022-08-28T17:11:41.239Z,100435.50
2022-08-28T17:14:09.059Z,100443.41
2022-08-28T17:16:35.566Z,100441.59
2022-08-28T17:19:02.104Z,100444.19
2022-08-28T17:21:47.043Z,100446.75
2022-08-28T17:24:13.798Z,100444.84
2022-08-28T17:26:42.328Z,100448.25
2022-08-28T17:29:09.357Z,100457.03
2022-08-28T17:31:36.812Z,100460.50
2022-08-28T17:34:05.578Z,100464.00
2022-08-28T17:36:34.354Z,100467.47
2022-08-28T17:39:10.452Z,100458.56
2022-08-28T17:41:37.563Z,100463.78
2022-08-28T17:44:05.129Z,100473.47
2022-08-28T17:46:37.522Z,100472.47
2022-08-28T17:49:05.486Z,100476.78
2022-08-28T17:51:42.016Z,100487.34
2022-08-28T17:54:10.209Z,100492.53
2022-08-28T17:56:36.684Z,100501.28
2022-08-28T17:59:04.207Z,100502.88
2022-08-28T18:01:30.762Z,100511.63
2022-08-28T18:03:57.303Z,100508.84
2022-08-28T18:06:23.773Z,100510.56
2022-08-28T18:08:51.833Z,100518.38
2022-08-28T18:11:19.409Z,100511.28
2022-08-28T18:13:46.633Z,100528.03
2022-08-28T18:16:13.535Z,100526.13
2022-08-28T18:18:41.396Z,100537.47
2022-08-28T18:21:09.981Z,100536.34
2022-08-28T18:23:36.780Z,100538.06
2022-08-28T18:26:03.525Z,100531.84
2022-08-28T18:28:30.064Z,100536.09
2022-08-28T18:30:56.561Z,100538.66
2022-08-28T18:33:24.194Z,100542.28
2022-08-28T18:35:53.261Z,100544.78
2022-08-28T18:38:22.012Z,100549.03
2022-08-28T18:40:49.182Z,100548.03
2022-08-28T18:43:17.669Z,100556.72
2022-08-28T18:45:44.144Z,100567.16
2022-08-28T18:48:10.735Z,100566.19
2022-08-28T18:50:37.917Z,100574.94
2022-08-28T18:53:05.388Z,100574.84
2022-08-28T18:55:33.400Z,100587.19
2022-08-28T18:58:01.668Z,100581.88
2022-08-28T19:00:28.665Z,100593.19
2022-08-28T19:02:55.309Z,100589.69
2022-08-28T19:05:22.323Z,100593.19
2022-08-28T19:07:49.289Z,100595.63
2022-08-28T19:10:32.672Z,100599.91
2022-08-28T19:13:00.976Z,100604.25
2022-08-28T19:15:28.234Z,100605.03
2022-08-28T19:17:55.012Z,100601.47
2022-08-28T19:20:21.799Z,100608.38
2022-08-28T19:22:48.949Z,100610.88
2022-08-28T19:25:27.479Z,100609.88
2022-08-28T19:27:56.320Z,100618.50
2022-08-28T19:30:25.562Z,100609.66
2022-08-28T19:32:52.106Z,100608.81
2022-08-28T19:35:18.993Z,100607.84
2022-08-28T19:37:45.999Z,100616.50
2022-08-28T19:40:13.585Z,100621.72
2022-08-28T19:42:40.801Z,100616.41
2022-08-28T19:45:09.141Z,100623.25
2022-08-28T19:47:36.161Z,100631.72
2022-08-28T19:50:04.481Z,100628.13
2022-08-28T19:52:30.905Z,100631.56
2022-08-28T19:55:00.820Z,100637.63
2022-08-28T19:57:27.259Z,100635.91
2022-08-28T19:59:53.697Z,100645.59
2022-08-28T20:02:20.557Z,100649.97
2022-08-28T20:04:47.053Z,100663.03
2022-08-28T20:07:13.504Z,100660.25
2022-08-28T20:09:39.920Z,100653.19
2022-08-28T20:12:06.453Z,100656.69
2022-08-28T20:14:34.273Z,100660.16
2022-08-28T20:17:00.732Z,100659.34
2022-08-28T20:19:27.190Z,100669.00
2022-08-28T20:21:54.541Z,100668.03
2022-08-28T20:24:23.983Z,100672.28
2022-08-28T20:26:51.959Z,100673.00
2022-08-28T20:29:18.633Z,100678.28
2022-08-28T20:31:47.771Z,100680.66
2022-08-28T20:34:17.404Z,100687.28
2022-08-28T20:36:44.077Z,100691.28
2022-08-28T20:39:11.177Z,100700.78
2022-08-28T20:41:40.267Z,100703.84
2022-08-28T20:44:09.246Z,100708.00
2022-08-28T20:46:40.782Z,100710.72
2022-08-28T20:49:12.679Z,100719.41
2022-08-28T20:51:53.323Z,100715.03
2022-08-28T20:54:27.201Z,100720.41
2022-08-28T20:56:54.428Z,100723.56
2022-08-28T20:59:21.540Z,100714.78
2022-08-28T21:01:51.133Z,100723.63
2022-08-28T21:04:18.166Z,100725.44
2022-08-28T21:06:46.604Z,100726.56
2022-08-28T21:09:14.930Z,100721.34
2022-08-28T21:11:42.888Z,100717.03
2022-08-28T21:14:10.693Z,100725.06
2022-08-28T21:16:38.635Z,100729.44
2022-08-28T21:19:16.034Z,100727.47
2022-08-28T21:21:44.001Z,100736.09
2022-08-28T21:24:13.157Z,100740.28
2022-08-28T21:26:44.637Z,100741.88
2022-08-28T21:29:12.631Z,100747.38
2022-08-28T21:31:41.638Z,100736.56
2022-08-28T21:34:09.538Z,100736.50
2022-08-28T21:36:37.982Z,100737.56
2022-08-28T21:39:05.807Z,100734.03
2022-08-28T21:41:32.297Z,100732.16
2022-08-28T21:43:58.744Z,100734.66
2022-08-28T21:46:25.280Z,100730.91
2022-08-28T21:48:53.414Z,100740.50
2022-08-28T21:51:20.427Z,100737.72
2022-08-28T21:53:47.325Z,100741.38
2022-08-28T21:56:24.487Z,100741.47
2022-08-28T21:58:52.597Z,100751.28
2022-08-28T22:01:20.568Z,100744.03
2022-08-28T22:03:47.812Z,100740.38
2022-08-28T22:06:18.316Z,100748.41
2022-08-28T22:08:44.847Z,100751.91
2022-08-28T22:11:11.930Z,100760.63
2022-08-28T22:13:38.406Z,100759.81
2022-08-28T22:16:06.262Z,100753.78
2022-08-28T22:18:34.314Z,100755.47
2022-08-28T22:21:20.269Z,100759.16
2022-08-28T22:23:47.225Z,100751.38
2022-08-28T22:26:16.932Z,100757.34
2022-08-28T22:28:43.870Z,100763.22
2022-08-28T22:31:10.694Z,100763.94
2022-08-28T22:33:37.817Z,100760.44
2022-08-28T22:36:04.914Z,100756.47
2022-08-28T22:38:31.720Z,100758.78
2022-08-28T22:40:58.216Z,100760.50
2022-08-28T22:43:24.944Z,100758.72
2022-08-28T22:45:51.456Z,100761.19
2022-08-28T22:48:19.282Z,100774.88
2022-08-28T22:50:47.510Z,100768.25
2022-08-28T22:53:17.473Z,100773.19
2022-08-28T22:55:44.693Z,100776.47
2022-08-28T22:58:12.899Z,100772.66
2022-08-28T23:00:41.788Z,100784.78
2022-08-28T23:03:08.339Z,100793.59
2022-08-28T23:05:35.086Z,100797.78
2022-08-28T23:08:01.614Z,100796.91
2022-08-28T23:10:48.336Z,100805.44
2022-08-28T23:13:15.147Z,100807.16
2022-08-28T23:15:43.071Z,100809.94
2022-08-28T23:18:10.429Z,100812.78
2022-08-28T23:20:37.395Z,100820.09
2022-08-28T23:23:03.986Z,100817.78
2022-08-28T23:25:30.526Z,100826.56
2022-08-28T23:27:57.336Z,100813.31
2022-08-28T23:30:24.800Z,100812.13
2022-08-28T23:32:52.866Z,100812.13
2022-08-28T23:35:20.613Z,100806.34
2022-08-28T23:37:51.765Z,100809.94
2022-08-28T23:40:22.503Z,100796.94
2022-08-28T23:42:49.080Z,100795.13
2022-08-28T23:45:17.408Z,100793.63
2022-08-28T23:47:44.269Z,100798.56
2022-08-28T23:50:21.056Z,100798.44
2022-08-28T23:52:48.228Z,100794.34
2022-08-28T23:55:16.780Z,100799.69
2022-08-28T23:57:44.034Z,100799.59
